createdAt,value
2019-03-11T00:02:02.371Z,66.70
2019-03-11T00:04:33.077Z,66.80
2019-03-11T00:07:03.718Z,67.00
2019-03-11T00:09:34.279Z,67.00
2019-03-11T00:12:04.911Z,67.20
2019-03-11T00:14:35.523Z,67.30
2019-03-11T00:17:06.077Z,67.30
2019-03-11T00:19:36.769Z,67.50
2019-03-11T00:22:07.324Z,67.60
2019-03-11T00:24:39.296Z,67.70
2019-03-11T00:27:09.951Z,67.90
2019-03-11T00:29:40.528Z,67.70
2019-03-11T00:32:11.094Z,68.90
2019-03-11T00:34:41.741Z,68.00
2019-03-11T00:37:13.899Z,67.50
2019-03-11T00:39:44.603Z,67.30
2019-03-11T00:42:15.266Z,67.30
2019-03-11T00:44:45.915Z,67.40
2019-03-11T00:47:16.514Z,67.50
2019-03-11T00:49:47.260Z,67.70
2019-03-11T00:52:17.796Z,67.70
2019-03-11T00:54:48.451Z,67.90
2019-03-11T00:57:19.069Z,68.30
2019-03-11T00:59:49.828Z,68.10
2019-03-11T01:02:20.528Z,68.30
2019-03-11T01:04:51.114Z,68.20
2019-03-11T01:07:21.808Z,68.80
2019-03-11T01:09:52.360Z,68.20
2019-03-11T01:12:22.967Z,68.10
2019-03-11T01:14:53.575Z,67.60
2019-03-11T01:17:24.388Z,67.60
2019-03-11T01:19:55.097Z,68.30
2019-03-11T01:22:25.748Z,67.90
2019-03-11T01:24:56.335Z,68.00
2019-03-11T01:27:27.117Z,68.40
2019-03-11T01:29:57.687Z,68.30
2019-03-11T01:32:28.306Z,68.70
2019-03-11T01:34:59.070Z,69.00
2019-03-11T01:37:29.772Z,69.30
2019-03-11T01:40:00.407Z,69.60
2019-03-11T01:42:30.953Z,70.00
2019-03-11T01:45:01.649Z,70.00
2019-03-11T01:47:32.397Z,70.20
2019-03-11T01:50:03.029Z,70.20
2019-03-11T01:52:33.978Z,70.30
2019-03-11T01:55:05.279Z,70.40
2019-03-11T01:57:35.847Z,70.40
2019-03-11T02:00:08.630Z,70.30
2019-03-11T02:02:40.875Z,69.50
2019-03-11T02:05:12.610Z,69.70
2019-03-11T02:07:43.490Z,69.20
2019-03-11T02:10:14.808Z,69.10
2019-03-11T02:12:46.253Z,69.10
2019-03-11T02:15:17.486Z,69.10
2019-03-11T02:17:48.271Z,69.40
2019-03-11T02:20:19.095Z,69.50
2019-03-11T02:22:49.946Z,69.50
2019-03-11T02:25:20.715Z,69.70
2019-03-11T02:27:51.481Z,69.90
2019-03-11T02:30:22.241Z,70.00
2019-03-11T02:32:52.821Z,70.10
2019-03-11T02:35:29.072Z,70.00
2019-03-11T02:38:00.114Z,70.20
2019-03-11T02:40:30.847Z,70.20
2019-03-11T02:43:02.058Z,70.20
2019-03-11T02:45:32.796Z,70.30
2019-03-11T02:48:03.453Z,70.60
2019-03-11T02:50:34.144Z,70.70
2019-03-11T02:53:05.170Z,70.40
2019-03-11T02:55:35.887Z,70.40
2019-03-11T02:58:06.595Z,70.30
2019-03-11T03:00:37.290Z,70.30
2019-03-11T03:03:30.134Z,70.30
2019-03-11T03:06:05.593Z,70.40
2019-03-11T03:08:36.108Z,70.40
2019-03-11T03:11:06.656Z,70.20
2019-03-11T03:13:37.207Z,70.20
2019-03-11T03:16:07.994Z,70.20
2019-03-11T03:18:38.539Z,70.10
2019-03-11T03:21:09.143Z,69.90
2019-03-11T03:23:39.954Z,69.80
2019-03-11T03:26:10.557Z,69.70
2019-03-11T03:28:41.230Z,69.60
2019-03-11T03:31:11.818Z,69.60
2019-03-11T03:33:42.441Z,69.50
2019-03-11T03:36:13.007Z,69.60
2019-03-11T03:38:43.609Z,69.50
2019-03-11T03:41:14.171Z,69.30
2019-03-11T03:43:44.834Z,69.30
2019-03-11T03:46:19.045Z,69.20
2019-03-11T03:48:48.181Z,69.10
2019-03-11T03:51:19.151Z,68.90
2019-03-11T03:53:49.875Z,69.40
2019-03-11T03:56:20.548Z,68.50
2019-03-11T03:58:51.120Z,68.60
2019-03-11T04:01:22.094Z,68.50
2019-03-11T04:03:52.694Z,68.40
2019-03-11T04:06:23.762Z,68.50
2019-03-11T04:08:54.376Z,68.70
2019-03-11T04:11:25.104Z,68.60
2019-03-11T04:13:56.045Z,68.50
2019-03-11T04:16:26.737Z,68.50
2019-03-11T04:18:57.710Z,68.40
2019-03-11T04:21:28.420Z,68.30
2019-03-11T04:24:00.456Z,68.30
2019-03-11T04:26:34.485Z,68.30
2019-03-11T04:29:05.140Z,68.00
2019-03-11T04:31:35.701Z,68.00
2019-03-11T04:34:06.365Z,68.20
2019-03-11T04:36:37.355Z,68.00
2019-03-11T04:39:08.067Z,68.10
2019-03-11T04:41:38.766Z,68.00
2019-03-11T04:44:09.377Z,68.00
2019-03-11T04:46:39.949Z,68.00
2019-03-11T04:49:10.483Z,68.20
2019-03-11T04:51:41.314Z,68.40
2019-03-11T04:54:12.251Z,68.30
2019-03-11T04:56:42.924Z,68.10
2019-03-11T04:59:14.160Z,67.90
2019-03-11T05:01:44.806Z,67.60
2019-03-11T05:04:15.440Z,67.70
2019-03-11T05:06:45.976Z,67.90
2019-03-11T05:09:16.544Z,67.90
2019-03-11T05:11:47.201Z,68.00
2019-03-11T05:14:17.745Z,67.90
2019-03-11T05:16:48.794Z,68.10
2019-03-11T05:19:19.494Z,68.10
2019-03-11T05:21:50.061Z,68.10
2019-03-11T05:24:20.730Z,68.80
2019-03-11T05:26:51.438Z,68.20
2019-03-11T05:29:22.620Z,67.80
2019-03-11T05:32:12.390Z,68.40
2019-03-11T05:34:43.152Z,68.50
2019-03-11T05:37:15.101Z,68.50
2019-03-11T05:39:45.748Z,68.60
2019-03-11T05:42:16.404Z,68.60
2019-03-11T05:44:46.961Z,68.70
2019-03-11T05:47:17.651Z,68.90
2019-03-11T05:50:00.341Z,69.00
2019-03-11T05:52:30.972Z,68.90
2019-03-11T05:55:01.938Z,69.50
2019-03-11T05:57:32.605Z,69.40
2019-03-11T06:00:03.309Z,69.40
2019-03-11T06:02:36.370Z,69.40
2019-03-11T06:05:06.790Z,69.60
2019-03-11T06:07:37.424Z,69.60
2019-03-11T06:10:09.993Z,69.90
2019-03-11T06:12:40.642Z,69.90
2019-03-11T06:15:11.923Z,70.00
2019-03-11T06:17:42.619Z,70.00
2019-03-11T06:20:35.902Z,69.90
2019-03-11T06:23:08.188Z,70.10
2019-03-11T06:25:38.785Z,70.10
2019-03-11T06:28:09.864Z,70.20
2019-03-11T06:30:40.571Z,70.20
2019-03-11T06:33:11.127Z,70.40
2019-03-11T06:35:41.819Z,70.50
2019-03-11T06:38:12.574Z,70.90
2019-03-11T06:40:45.723Z,70.90
2019-03-11T06:43:15.553Z,71.00
2019-03-11T06:45:46.187Z,71.20
2019-03-11T06:48:16.819Z,71.30
2019-03-11T06:50:47.351Z,71.40
2019-03-11T06:53:17.946Z,71.60
2019-03-11T06:55:48.639Z,71.50
2019-03-11T06:58:20.358Z,71.60
2019-03-11T07:00:50.954Z,72.60
2019-03-11T07:03:21.632Z,72.00
2019-03-11T07:05:52.328Z,71.90
2019-03-11T07:08:22.876Z,71.80
2019-03-11T07:10:53.624Z,71.80
2019-03-11T07:13:24.335Z,71.80
2019-03-11T07:15:54.983Z,71.70
2019-03-11T07:18:25.619Z,71.80
2019-03-11T07:20:56.170Z,71.50
2019-03-11T07:23:26.849Z,71.50
2019-03-11T07:25:57.398Z,71.60
2019-03-11T07:28:27.912Z,72.30
2019-03-11T07:30:58.505Z,71.90
2019-03-11T07:33:29.048Z,72.00
2019-03-11T07:35:59.653Z,71.70
2019-03-11T07:38:30.214Z,71.60
2019-03-11T07:41:00.923Z,71.60
2019-03-11T07:43:31.460Z,71.60
2019-03-11T07:46:02.201Z,71.60
2019-03-11T07:48:32.733Z,71.40
2019-03-11T07:51:03.383Z,71.60
2019-03-11T07:53:34.119Z,72.40
2019-03-11T07:56:04.772Z,71.70
2019-03-11T07:58:35.745Z,72.00
2019-03-11T08:01:07.880Z,71.90
2019-03-11T08:03:38.540Z,71.80
2019-03-11T08:06:18.101Z,71.80
2019-03-11T08:08:41.670Z,71.80
2019-03-11T08:11:12.368Z,71.80
2019-03-11T08:13:43.838Z,71.80
2019-03-11T08:16:15.090Z,71.80
2019-03-11T08:18:46.425Z,71.50
2019-03-11T08:21:17.580Z,71.10
2019-03-11T08:23:48.976Z,71.00
2019-03-11T08:26:20.266Z,71.00
2019-03-11T08:28:51.581Z,70.90
2019-03-11T08:31:22.700Z,70.90
2019-03-11T08:33:54.108Z,70.90
2019-03-11T08:36:25.188Z,70.90
2019-03-11T08:38:55.897Z,70.80
2019-03-11T08:41:26.581Z,70.90
2019-03-11T08:43:57.236Z,71.00
2019-03-11T08:46:27.899Z,70.80
2019-03-11T08:48:58.531Z,70.80
2019-03-11T08:51:29.203Z,70.60
2019-03-11T08:53:59.803Z,70.50
2019-03-11T08:56:30.341Z,70.40
2019-03-11T08:59:00.941Z,70.40
2019-03-11T09:01:32.008Z,70.70
2019-03-11T09:04:02.650Z,70.70
2019-03-11T09:06:33.337Z,70.80
2019-03-11T09:09:05.481Z,70.90
2019-03-11T09:11:36.613Z,70.90
2019-03-11T09:14:07.241Z,71.00
2019-03-11T09:16:37.973Z,71.00
2019-03-11T09:19:08.686Z,70.70
2019-03-11T09:21:39.281Z,70.40
2019-03-11T09:24:18.716Z,69.10
2019-03-11T09:26:43.336Z,66.20
2019-03-11T09:29:13.903Z,62.70
2019-03-11T09:31:44.639Z,58.90
2019-03-11T09:34:15.349Z,55.20
2019-03-11T09:36:45.882Z,52.30
2019-03-11T09:39:16.564Z,49.30
2019-03-11T09:41:47.432Z,46.70
2019-03-11T09:44:18.105Z,44.10
2019-03-11T09:46:48.736Z,42.30
2019-03-11T09:49:19.355Z,40.40
2019-03-11T09:51:50.113Z,39.40
2019-03-11T09:54:20.813Z,38.90
2019-03-11T09:56:51.721Z,38.00
2019-03-11T09:59:22.412Z,37.10
2019-03-11T10:01:52.977Z,36.10
2019-03-11T10:04:23.793Z,36.70
2019-03-11T10:06:54.348Z,35.60
2019-03-11T10:09:25.024Z,35.70
2019-03-11T10:11:55.851Z,36.70
2019-03-11T10:14:26.690Z,36.70
2019-03-11T10:16:57.434Z,36.40
2019-03-11T10:19:28.306Z,36.50
2019-03-11T10:21:58.966Z,39.20
2019-03-11T10:24:30.288Z,39.70
2019-03-11T10:27:00.955Z,40.60
2019-03-11T10:29:31.780Z,41.80
2019-03-11T10:32:02.973Z,41.60
2019-03-11T10:34:33.669Z,42.10
2019-03-11T10:37:04.478Z,39.40
2019-03-11T10:39:35.191Z,37.90
2019-03-11T10:42:06.105Z,37.80
2019-03-11T10:44:36.738Z,38.70
2019-03-11T10:47:08.482Z,40.30
2019-03-11T10:49:39.197Z,42.10
2019-03-11T10:52:09.954Z,43.70
2019-03-11T10:54:40.600Z,44.70
2019-03-11T10:57:11.353Z,44.80
2019-03-11T10:59:42.164Z,44.70
2019-03-11T11:02:13.040Z,44.60
2019-03-11T11:04:43.803Z,43.80
2019-03-11T11:07:14.741Z,43.50
2019-03-11T11:09:45.520Z,43.40
2019-03-11T11:12:16.649Z,43.70
2019-03-11T11:14:47.383Z,43.70
2019-03-11T11:17:18.378Z,43.50
2019-03-11T11:19:49.695Z,43.30
2019-03-11T11:22:20.441Z,42.10
2019-03-11T11:24:51.173Z,42.00
2019-03-11T11:27:24.914Z,41.90
2019-03-11T11:29:55.748Z,41.90
2019-03-11T11:32:28.025Z,41.90
2019-03-11T11:34:58.710Z,41.80
2019-03-11T11:37:29.468Z,41.90
2019-03-11T11:40:00.326Z,41.30
2019-03-11T11:42:31.078Z,41.20
2019-03-11T11:45:01.593Z,41.40
2019-03-11T11:47:32.342Z,41.60
2019-03-11T11:50:02.944Z,42.10
2019-03-11T11:52:33.664Z,42.10
2019-03-11T11:55:05.589Z,41.80
2019-03-11T11:57:36.293Z,41.40
2019-03-11T12:00:11.675Z,41.70
2019-03-11T12:02:44.121Z,41.90
2019-03-11T12:05:17.742Z,41.90
2019-03-11T12:07:49.820Z,42.00
2019-03-11T12:10:32.338Z,42.10
2019-03-11T12:13:04.228Z,42.40
2019-03-11T12:15:35.153Z,42.40
2019-03-11T12:18:06.243Z,42.70
2019-03-11T12:20:36.950Z,42.80
2019-03-11T12:23:07.529Z,42.90
2019-03-11T12:25:38.232Z,43.00
2019-03-11T12:28:08.933Z,43.20
2019-03-11T12:30:39.630Z,43.20
2019-03-11T12:33:10.216Z,43.10
2019-03-11T12:35:41.222Z,43.00
2019-03-11T12:38:12.662Z,44.20
2019-03-11T12:40:43.416Z,44.80
2019-03-11T12:43:14.167Z,45.20
2019-03-11T12:45:44.820Z,45.80
2019-03-11T12:48:15.363Z,46.20
2019-03-11T12:50:45.891Z,46.40
2019-03-11T12:53:16.491Z,46.40
2019-03-11T12:55:47.041Z,46.30
2019-03-11T12:58:17.729Z,46.20
2019-03-11T13:00:48.327Z,46.00
2019-03-11T13:03:19.064Z,46.00
2019-03-11T13:05:49.758Z,46.30
2019-03-11T13:08:20.444Z,46.50
2019-03-11T13:10:51.385Z,46.70
2019-03-11T13:13:22.118Z,47.10
2019-03-11T13:15:52.770Z,47.30
2019-03-11T13:18:51.125Z,47.50
2019-03-11T13:21:24.883Z,47.30
2019-03-11T13:23:55.553Z,47.10
2019-03-11T13:26:26.101Z,46.90
2019-03-11T13:28:56.750Z,47.00
2019-03-11T13:31:27.343Z,46.90
2019-03-11T13:33:57.947Z,46.80
2019-03-11T13:36:28.635Z,46.30
2019-03-11T13:38:59.314Z,47.30
2019-03-11T13:41:29.875Z,47.70
2019-03-11T13:44:00.720Z,48.10
2019-03-11T13:46:31.394Z,48.60
2019-03-11T13:49:01.923Z,48.50
2019-03-11T13:51:32.567Z,48.40
2019-03-11T13:54:03.184Z,48.50
2019-03-11T13:56:33.863Z,48.50
2019-03-11T13:59:04.590Z,48.60
2019-03-11T14:01:35.317Z,48.80
2019-03-11T14:04:05.899Z,48.90
2019-03-11T14:06:37.940Z,49.00
2019-03-11T14:09:08.666Z,49.10
2019-03-11T14:11:41.442Z,49.10
2019-03-11T14:14:12.127Z,49.10
2019-03-11T14:16:42.843Z,48.90
2019-03-11T14:19:13.420Z,48.80
2019-03-11T14:21:44.076Z,48.70
2019-03-11T14:24:14.659Z,48.80
2019-03-11T14:26:45.667Z,48.70
2019-03-11T14:29:16.347Z,48.80
2019-03-11T14:31:47.071Z,49.00
2019-03-11T14:34:18.175Z,49.10
2019-03-11T14:36:50.070Z,49.10
2019-03-11T14:39:20.648Z,49.10
2019-03-11T14:41:51.305Z,49.30
2019-03-11T14:44:21.949Z,49.70
2019-03-11T14:46:52.964Z,50.80
2019-03-11T14:49:23.511Z,50.60
2019-03-11T14:51:54.172Z,50.80
2019-03-11T14:54:24.690Z,51.00
2019-03-11T14:56:55.399Z,51.00
2019-03-11T14:59:26.148Z,51.50
2019-03-11T15:01:56.883Z,51.20
2019-03-11T15:04:27.498Z,51.00
2019-03-11T15:06:58.105Z,51.00
2019-03-11T15:09:29.790Z,51.10
2019-03-11T15:12:00.318Z,51.00
2019-03-11T15:14:33.588Z,51.50
2019-03-11T15:17:03.297Z,51.50
2019-03-11T15:19:33.940Z,51.60
2019-03-11T15:22:04.504Z,51.60
2019-03-11T15:24:35.165Z,51.90
2019-03-11T15:27:05.778Z,52.00
2019-03-11T15:29:36.506Z,52.20
2019-03-11T15:32:07.322Z,52.30
2019-03-11T15:34:38.059Z,52.50
2019-03-11T15:37:08.772Z,52.60
2019-03-11T15:39:39.473Z,52.60
2019-03-11T15:42:10.028Z,52.70
2019-03-11T15:44:40.682Z,52.80
2019-03-11T15:47:11.268Z,53.00
2019-03-11T15:49:42.057Z,53.10
2019-03-11T15:52:12.806Z,53.00
2019-03-11T15:54:43.439Z,53.30
2019-03-11T15:57:14.141Z,53.20
2019-03-11T15:59:44.711Z,53.30
2019-03-11T16:02:15.635Z,53.70
2019-03-11T16:04:46.369Z,53.30
2019-03-11T16:07:17.369Z,53.30
2019-03-11T16:09:48.036Z,53.40
2019-03-11T16:12:18.680Z,53.30
2019-03-11T16:14:50.037Z,53.40
2019-03-11T16:17:20.839Z,53.50
2019-03-11T16:19:51.524Z,53.60
2019-03-11T16:22:24.302Z,53.80
2019-03-11T16:24:54.477Z,53.80
2019-03-11T16:27:25.219Z,54.00
2019-03-11T16:29:57.737Z,54.00
2019-03-11T16:32:29.599Z,54.10
2019-03-11T16:35:00.455Z,54.10
2019-03-11T16:37:31.278Z,54.20
2019-03-11T16:40:02.182Z,54.30
2019-03-11T16:42:32.902Z,54.30
2019-03-11T16:45:04.134Z,54.50
2019-03-11T16:47:34.804Z,54.50
2019-03-11T16:50:05.924Z,54.80
2019-03-11T16:52:36.818Z,54.80
2019-03-11T16:55:10.050Z,55.00
2019-03-11T16:57:41.729Z,55.00
2019-03-11T17:00:18.306Z,55.00
2019-03-11T17:02:49.046Z,55.20
2019-03-11T17:05:19.621Z,55.40
2019-03-11T17:07:51.513Z,55.60
2019-03-11T17:10:23.077Z,55.90
2019-03-11T17:12:53.913Z,55.80
2019-03-11T17:15:24.448Z,56.00
2019-03-11T17:17:55.220Z,56.00
2019-03-11T17:20:25.877Z,56.00
2019-03-11T17:22:56.772Z,56.20
2019-03-11T17:25:27.480Z,56.20
2019-03-11T17:27:58.121Z,56.90
2019-03-11T17:30:28.923Z,56.40
2019-03-11T17:32:59.907Z,56.60
2019-03-11T17:35:32.683Z,56.60
2019-03-11T17:38:03.422Z,56.70
2019-03-11T17:40:35.374Z,56.70
2019-03-11T17:43:06.424Z,56.70
2019-03-11T17:45:37.676Z,56.70
2019-03-11T17:48:08.399Z,56.70
2019-03-11T17:50:39.070Z,56.70
2019-03-11T17:53:19.533Z,56.70
2019-03-11T17:55:42.199Z,56.70
2019-03-11T17:58:12.813Z,56.70
2019-03-11T18:00:54.522Z,56.70
2019-03-11T18:03:17.422Z,56.80
2019-03-11T18:05:48.164Z,56.70
2019-03-11T18:08:18.826Z,56.80
2019-03-11T18:10:49.492Z,56.80
2019-03-11T18:13:20.111Z,57.30
2019-03-11T18:15:50.793Z,57.40
2019-03-11T18:18:32.414Z,57.60
2019-03-11T18:20:53.744Z,57.90
2019-03-11T18:23:24.461Z,58.20
2019-03-11T18:25:56.281Z,58.40
2019-03-11T18:28:27.956Z,58.50
2019-03-11T18:30:58.713Z,58.70
2019-03-11T18:33:29.256Z,58.70
2019-03-11T18:35:59.912Z,58.90
2019-03-11T18:38:30.969Z,59.00
2019-03-11T18:41:01.696Z,59.20
2019-03-11T18:43:42.313Z,59.20
2019-03-11T18:46:06.434Z,59.20
2019-03-11T18:48:37.149Z,59.20
2019-03-11T18:51:11.133Z,59.20
2019-03-11T18:53:40.518Z,59.30
2019-03-11T18:56:11.344Z,59.30
2019-03-11T18:58:42.357Z,59.50
2019-03-11T19:01:14.184Z,59.40
2019-03-11T19:03:44.975Z,59.30
2019-03-11T19:06:15.589Z,59.40
2019-03-11T19:08:46.577Z,59.40
2019-03-11T19:11:17.287Z,59.20
2019-03-11T19:13:47.905Z,59.00
2019-03-11T19:16:18.662Z,58.80
2019-03-11T19:18:49.458Z,58.70
2019-03-11T19:21:20.043Z,58.70
2019-03-11T19:23:51.056Z,58.70
2019-03-11T19:26:21.751Z,58.70
2019-03-11T19:28:52.894Z,58.70
2019-03-11T19:31:24.233Z,58.80
2019-03-11T19:33:55.080Z,58.80
2019-03-11T19:36:25.907Z,58.90
2019-03-11T19:38:57.040Z,59.00
2019-03-11T19:41:27.808Z,59.00
2019-03-11T19:43:58.558Z,59.10
2019-03-11T19:46:29.451Z,59.20
2019-03-11T19:49:00.045Z,59.10
2019-03-11T19:51:30.668Z,59.10
2019-03-11T19:54:01.456Z,59.20
2019-03-11T19:56:32.725Z,59.30
2019-03-11T19:59:03.845Z,59.30
2019-03-11T20:01:34.827Z,59.40
2019-03-11T20:04:05.604Z,59.30
2019-03-11T20:06:36.492Z,59.30
2019-03-11T20:09:11.155Z,59.40
2019-03-11T20:11:42.774Z,59.40
2019-03-11T20:14:13.584Z,59.40
2019-03-11T20:16:44.313Z,59.40
2019-03-11T20:19:15.062Z,59.60
2019-03-11T20:21:45.891Z,59.50
2019-03-11T20:24:16.777Z,59.50
2019-03-11T20:26:47.578Z,59.60
2019-03-11T20:29:18.372Z,59.60
2019-03-11T20:31:49.206Z,59.70
2019-03-11T20:34:20.560Z,59.60
2019-03-11T20:36:51.334Z,59.60
2019-03-11T20:39:22.071Z,59.50
2019-03-11T20:41:52.873Z,59.50
2019-03-11T20:44:23.628Z,59.60
2019-03-11T20:46:54.375Z,59.50
2019-03-11T20:49:25.147Z,60.10
2019-03-11T20:51:55.945Z,59.50
2019-03-11T20:54:26.730Z,59.40
2019-03-11T20:56:57.621Z,59.20
2019-03-11T20:59:28.233Z,59.10
2019-03-11T21:01:58.963Z,59.00
2019-03-11T21:04:29.754Z,59.00
2019-03-11T21:07:00.830Z,59.20
2019-03-11T21:09:31.902Z,59.10
2019-03-11T21:12:02.724Z,59.10
2019-03-11T21:14:33.477Z,59.00
2019-03-11T21:17:04.232Z,59.10
2019-03-11T21:19:34.887Z,58.80
2019-03-11T21:22:05.710Z,58.70
2019-03-11T21:24:38.100Z,58.70
2019-03-11T21:27:10.646Z,58.80
2019-03-11T21:29:43.216Z,58.70
2019-03-11T21:32:15.117Z,58.80
2019-03-11T21:34:47.318Z,58.90
2019-03-11T21:37:19.942Z,59.00
2019-03-11T21:39:51.943Z,59.20
2019-03-11T21:42:22.940Z,59.20
2019-03-11T21:44:53.966Z,59.20
2019-03-11T21:47:24.807Z,59.40
2019-03-11T21:49:55.761Z,60.20
2019-03-11T21:52:26.447Z,60.40
2019-03-11T21:54:57.096Z,59.80
2019-03-11T21:57:27.865Z,59.80
2019-03-11T21:59:59.391Z,59.90
2019-03-11T22:02:30.123Z,60.00
2019-03-11T22:05:00.641Z,59.90
2019-03-11T22:07:31.415Z,60.10
2019-03-11T22:10:02.186Z,60.00
2019-03-11T22:12:32.954Z,60.10
2019-03-11T22:15:03.677Z,60.30
2019-03-11T22:17:35.649Z,60.70
2019-03-11T22:20:08.386Z,61.10
2019-03-11T22:22:39.015Z,61.10
2019-03-11T22:25:10.946Z,61.10
2019-03-11T22:27:41.568Z,61.40
2019-03-11T22:30:15.154Z,61.40
2019-03-11T22:32:45.806Z,61.40
2019-03-11T22:35:16.481Z,61.50
2019-03-11T22:37:47.105Z,61.40
2019-03-11T22:40:17.737Z,61.50
2019-03-11T22:42:48.408Z,61.60
2019-03-11T22:45:20.643Z,61.70
2019-03-11T22:47:51.630Z,62.00
2019-03-11T22:50:22.353Z,62.10
2019-03-11T22:52:53.050Z,62.00
2019-03-11T22:55:24.091Z,62.00
2019-03-11T22:57:54.667Z,62.10
2019-03-11T23:00:32.338Z,62.10
2019-03-11T23:03:06.698Z,62.10
2019-03-11T23:05:37.296Z,62.20
2019-03-11T23:08:08.676Z,62.20
2019-03-11T23:10:40.082Z,62.20
2019-03-11T23:13:10.922Z,62.50
2019-03-11T23:15:41.974Z,62.50
2019-03-11T23:18:12.724Z,62.60
2019-03-11T23:20:43.516Z,62.50
2019-03-11T23:23:14.265Z,62.80
2019-03-11T23:25:45.246Z,62.70
2019-03-11T23:28:16.047Z,62.80
2019-03-11T23:30:47.188Z,63.10
2019-03-11T23:33:18.626Z,63.00
2019-03-11T23:35:49.361Z,63.30
2019-03-11T23:38:20.043Z,63.40
2019-03-11T23:40:50.763Z,63.60
2019-03-11T23:43:21.480Z,63.60
2019-03-11T23:45:52.124Z,63.60
2019-03-11T23:48:22.707Z,63.70
2019-03-11T23:50:53.225Z,63.70
2019-03-11T23:53:23.787Z,63.70
2019-03-11T23:55:54.844Z,63.70
2019-03-11T23:58:25.532Z,63.70
